Time;durP1;ratioP1;P1;durP2;ratioP2;P2;SDS_P1;SDS_P2;PMS_P1;PMS_P2;Temp;Humidity;BMP_temperature;BMP_pressure;BME280_temperature;BME280_humidity;BME280_pressure;Samples;Min_cycle;Max_cycle;Signal;HPM_P1;HPM_P2
2024/04/05 00:01:48;;;;;;;7.78;2.42;;;;;;;9.19;90.31;98370.94;5002937;28;20030;-84
2024/04/05 00:04:14;;;;;;;8.15;3.00;;;;;;;8.75;91.28;98323.13;5004647;28;20037;-83
2024/04/05 00:06:39;;;;;;;10.73;3.15;;;;;;;8.68;90.77;98305.72;5003601;28;20033;-84
2024/04/05 00:09:06;;;;;;;7.60;2.90;;;;;;;9.13;91.42;98398.59;4986356;28;20074;-85
2024/04/05 00:11:32;;;;;;;10.88;3.67;;;;;;;9.20;91.26;98402.66;5002906;28;20382;-86
2024/04/05 00:13:58;;;;;;;11.25;3.20;;;;;;;9.15;90.88;98399.94;5005519;28;20040;-85
2024/04/05 00:16:23;;;;;;;11.85;3.70;;;;;;;9.08;90.85;98380.69;4986579;28;20029;-84
2024/04/05 00:18:50;;;;;;;7.70;4.45;;;;;;;9.20;90.54;98402.66;4989399;28;20084;-86
2024/04/05 00:21:16;;;;;;;12.05;3.33;;;;;;;8.71;90.81;98332.66;4994209;28;20083;-87
2024/04/05 00:23:42;;;;;;;13.25;2.97;;;;;;;8.82;91.22;98349.53;5010660;28;20022;-86
2024/04/05 00:26:09;;;;;;;11.07;3.40;;;;;;;8.71;91.44;98353.94;5004857;28;20041;-86
2024/04/05 00:28:36;;;;;;;13.93;3.60;;;;;;;8.82;90.65;98349.53;5008170;28;20033;-85
2024/04/05 00:31:02;;;;;;;9.20;3.28;;;;;;;9.25;91.25;98416.03;4988589;28;20037;-86
2024/04/05 00:33:28;;;;;;;8.98;3.03;;;;;;;8.71;91.92;98361.91;5009464;28;20083;-85
2024/04/05 00:35:54;;;;;;;10.48;3.88;;;;;;;8.38;92.04;98340.75;4999321;28;20064;-86
2024/04/05 00:38:22;;;;;;;12.52;2.92;;;;;;;9.04;91.44;98414.19;5006158;28;20096;-86
2024/04/05 00:40:48;;;;;;;17.00;3.72;;;;;;;8.73;92.36;98397.06;5024584;28;20089;-85
2024/04/05 00:43:14;;;;;;;8.93;2.90;;;;;;;9.10;91.41;98429.16;4985689;28;20124;-85
2024/04/05 00:45:40;;;;;;;14.57;2.88;;;;;;;8.65;91.03;98354.13;4987318;28;20022;-86
2024/04/05 00:48:06;;;;;;;13.20;2.63;;;;;;;9.15;90.89;98404.47;4996467;28;20030;-85
2024/04/05 00:50:34;;;;;;;12.93;4.28;;;;;;;8.55;91.33;98338.84;4990751;28;20049;-85
2024/04/05 00:53:01;;;;;;;17.23;3.28;;;;;;;8.73;89.43;98327.88;5017900;28;20036;-85
2024/04/05 00:55:29;;;;;;;6.25;2.25;;;;;;;9.17;91.02;98421.00;4983168;28;20096;-85
2024/04/05 00:57:58;;;;;;;10.18;2.55;;;;;;;8.76;90.59;98351.31;4986433;28;22141;-85
2024/04/05 01:00:24;;;;;;;9.18;3.78;;;;;;;9.00;90.72;98408.53;5003099;28;20510;-85
2024/04/05 01:02:50;;;;;;;13.65;3.38;;;;;;;9.00;91.29;98419.19;4983726;28;20058;-86
2024/04/05 01:05:16;;;;;;;9.48;2.80;;;;;;;9.30;90.56;98423.25;4986784;28;20034;-86
2024/04/05 01:07:42;;;;;;;11.35;3.22;;;;;;;9.14;90.45;98395.66;4973717;28;20033;-85
2024/04/05 01:10:07;;;;;;;9.98;2.88;;;;;;;8.84;92.62;98396.13;4972862;28;20109;-86
2024/04/05 01:12:33;;;;;;;13.90;2.47;;;;;;;8.16;92.96;98311.47;4999245;28;20034;-86
2024/04/05 01:14:58;;;;;;;6.60;3.08;;;;;;;8.84;92.13;98397.97;4999883;28;20149;-85
2024/04/05 01:17:23;;;;;;;10.32;3.22;;;;;;;8.46;92.86;98342.16;5014364;28;20030;-86
2024/04/05 01:19:51;;;;;;;7.03;2.40;;;;;;;8.89;92.16;98404.16;4982141;28;20553;-86
2024/04/05 01:22:23;;;;;;;9.60;3.15;;;;;;;8.78;92.00;98389.13;4987785;28;20030;-85
2024/04/05 01:24:48;;;;;;;8.65;3.00;;;;;;;8.71;91.58;98343.28;5004156;28;20056;-86
2024/04/05 01:27:14;;;;;;;6.40;2.72;;;;;;;9.08;91.39;98425.94;5004510;28;20093;-85
2024/04/05 01:29:39;;;;;;;6.60;2.35;;;;;;;8.81;90.39;98339.94;5021707;28;20056;-85
2024/04/05 01:32:05;;;;;;;8.10;2.65;;;;;;;9.27;90.51;98421.09;5006991;28;20036;-86
2024/04/05 01:34:30;;;;;;;8.07;2.42;;;;;;;8.79;90.61;98365.97;5009014;28;20060;-86
2024/04/05 01:36:55;;;;;;;13.02;4.13;;;;;;;9.19;90.96;98417.03;4989531;28;20034;-85
2024/04/05 01:39:21;;;;;;;6.00;2.50;;;;;;;8.82;90.56;98355.63;5006727;28;20022;-86
2024/04/05 01:41:46;;;;;;;8.27;3.08;;;;;;;8.87;91.56;98382.31;4986144;28;20038;-85
2024/04/05 01:44:12;;;;;;;16.30;2.45;;;;;;;9.07;92.01;98419.81;4986973;28;20046;-86
2024/04/05 01:46:37;;;;;;;8.90;2.38;;;;;;;9.19;91.45;98414.38;5003240;28;20026;-85
2024/04/05 01:49:02;;;;;;;5.28;2.55;;;;;;;8.77;91.57;98333.50;5019941;28;20034;-85
2024/04/05 01:51:28;;;;;;;7.53;2.40;;;;;;;9.23;91.82;98406.66;4974518;28;20030;-85
2024/04/05 01:53:53;;;;;;;7.97;2.10;;;;;;;9.19;91.38;98402.91;4999826;28;20102;-85
2024/04/05 01:56:18;;;;;;;8.77;2.88;;;;;;;9.10;92.40;98415.84;5005140;28;20030;-85
2024/04/05 01:58:44;;;;;;;15.00;4.18;;;;;;;8.94;91.23;98360.84;4974995;28;20053;-86
2024/04/05 02:01:10;;;;;;;6.28;3.03;;;;;;;8.89;92.53;98380.19;5026873;28;20395;-86
2024/04/05 02:03:35;;;;;;;7.97;2.30;;;;;;;8.57;91.64;98302.16;5011444;28;20110;-85
2024/04/05 02:06:00;;;;;;;6.95;2.75;;;;;;;9.25;91.22;98404.56;4990642;28;20026;-86
2024/04/05 02:08:26;;;;;;;10.00;2.58;;;;;;;9.25;91.05;98394.72;4974943;28;20030;-85
2024/04/05 02:10:51;;;;;;;6.60;2.28;;;;;;;9.26;91.57;98388.31;5004807;28;20041;-86
2024/04/05 02:13:16;;;;;;;7.40;2.33;;;;;;;9.21;91.55;98387.47;4975143;28;20497;-85
2024/04/05 02:15:46;;;;;;;5.80;2.65;;;;;;;9.05;91.95;98362.56;4993280;28;20026;-86
2024/04/05 02:18:11;;;;;;;14.23;3.85;;;;;;;8.63;92.24;98301.16;4990021;28;20086;-86
2024/04/05 02:20:38;;;;;;;6.97;2.20;;;;;;;9.28;91.65;98390.75;5007560;28;20034;-86
2024/04/05 02:23:03;;;;;;;8.93;3.15;;;;;;;9.35;91.28;98400.13;5007936;28;20045;-86
2024/04/05 02:25:29;;;;;;;5.25;2.17;;;;;;;8.77;91.08;98309.56;5025727;28;20490;-85
2024/04/05 02:27:54;;;;;;;4.75;2.85;;;;;;;8.86;91.30;98324.84;4990845;28;20033;-86
2024/04/05 02:30:20;;;;;;;5.45;1.85;;;;;;;8.81;91.30;98313.31;4992251;28;20029;-87
2024/04/05 02:32:46;;;;;;;9.98;2.20;;;;;;;9.23;90.55;98372.06;5024239;28;20088;-86
2024/04/05 02:35:12;;;;;;;2.85;2.30;;;;;;;9.04;91.20;98351.09;5006463;28;20033;-85
2024/04/05 02:37:37;;;;;;;10.75;2.17;;;;;;;8.92;91.64;98331.81;4975196;28;20049;-85
2024/04/05 02:40:04;;;;;;;6.68;3.00;;;;;;;9.23;91.09;98386.19;4993439;28;20125;-86
2024/04/05 02:42:29;;;;;;;3.85;2.40;;;;;;;8.74;92.73;98333.97;4976197;28;20037;-86
2024/04/05 02:44:54;;;;;;;7.28;3.10;;;;;;;8.88;91.54;98333.38;4998990;28;20030;-85
2024/04/05 02:47:20;;;;;;;8.93;3.00;;;;;;;8.87;91.75;98326.44;4991683;28;20084;-87
2024/04/05 02:49:45;;;;;;;7.10;3.15;;;;;;;9.22;92.54;98400.53;4991484;28;20478;-86
2024/04/05 02:52:10;;;;;;;7.13;2.72;;;;;;;8.73;91.93;98311.09;5007471;28;20135;-85
2024/04/05 02:54:36;;;;;;;4.93;2.30;;;;;;;8.84;91.78;98329.59;4973369;28;20065;-85
2024/04/05 02:57:01;;;;;;;10.98;2.55;;;;;;;9.26;91.73;98398.97;4976431;28;20129;-87
2024/04/05 02:59:27;;;;;;;5.40;2.67;;;;;;;9.33;91.85;98404.09;4989740;28;20041;-86
2024/04/05 03:01:52;;;;;;;10.80;3.00;;;;;;;9.24;92.11;98402.97;5001835;28;20028;-86
2024/04/05 03:04:17;;;;;;;7.53;2.35;;;;;;;8.77;91.54;98301.56;5007275;28;20049;-86
2024/04/05 03:06:43;;;;;;;11.45;3.78;;;;;;;9.37;91.43;98403.34;4977271;28;20048;-86
2024/04/05 03:09:08;;;;;;;6.63;2.33;;;;;;;9.26;91.50;98390.19;4976924;28;20063;-85
2024/04/05 03:11:34;;;;;;;9.05;3.03;;;;;;;8.88;91.65;98340.53;4985456;28;20096;-85
2024/04/05 03:13:59;;;;;;;6.85;2.45;;;;;;;9.30;92.27;98418.75;4997282;28;20026;-86
2024/04/05 03:16:24;;;;;;;11.10;3.30;;;;;;;9.28;92.40;98406.72;4986571;28;20049;-85
2024/04/05 03:18:50;;;;;;;4.75;2.60;;;;;;;8.83;91.98;98327.19;5000127;28;20030;-85
2024/04/05 03:21:15;;;;;;;9.23;2.92;;;;;;;8.99;92.50;98375.00;4988138;28;20112;-86
2024/04/05 03:23:40;;;;;;;7.70;2.55;;;;;;;9.30;92.57;98412.59;4972080;28;20053;-86
2024/04/05 03:26:06;;;;;;;4.57;2.22;;;;;;;9.30;92.14;98410.75;4999054;28;20593;-85
2024/04/05 03:28:31;;;;;;;9.65;2.95;;;;;;;9.21;92.64;98406.94;4999190;28;20030;-85
2024/04/05 03:30:57;;;;;;;3.20;2.50;;;;;;;9.35;92.16;98410.78;4983291;28;20050;-85
2024/04/05 03:33:22;;;;;;;10.68;2.78;;;;;;;9.43;91.52;98409.53;4982902;28;20045;-85
2024/04/05 03:35:47;;;;;;;3.90;2.10;;;;;;;9.48;91.36;98401.63;4985268;28;20045;-85
2024/04/05 03:38:13;;;;;;;6.90;2.20;;;;;;;9.46;91.21;98407.16;4976191;28;20086;-86
2024/04/05 03:40:39;;;;;;;11.02;2.63;;;;;;;9.33;91.77;98399.59;5001404;28;20107;-86
2024/04/05 03:43:06;;;;;;;8.95;2.97;;;;;;;9.05;93.14;98359.88;4983711;28;20517;-85
2024/04/05 03:45:31;;;;;;;6.93;2.58;;;;;;;9.45;91.93;98400.25;4993837;28;20038;-86
2024/04/05 03:47:57;;;;;;;4.85;2.47;;;;;;;9.05;90.99;98328.75;4997574;28;20034;-86
2024/04/05 03:50:22;;;;;;;5.93;2.72;;;;;;;9.44;92.26;98406.63;4984275;28;20122;-86
2024/04/05 03:52:47;;;;;;;7.55;2.83;;;;;;;9.18;92.08;98369.34;5016168;28;20038;-86
2024/04/05 03:55:13;;;;;;;8.43;2.60;;;;;;;9.37;91.48;98411.34;4984268;28;20036;-86
2024/04/05 03:57:42;;;;;;;7.85;2.47;;;;;;;9.52;91.27;98429.34;5003518;28;20037;-85
2024/04/05 04:00:08;;;;;;;6.60;2.58;;;;;;;9.14;92.77;98395.66;4997858;28;20033;-86
2024/04/05 04:02:33;;;;;;;10.40;2.50;;;;;;;9.32;92.43;98416.63;4995645;28;20028;-86
2024/04/05 04:04:58;;;;;;;5.10;2.13;;;;;;;9.46;91.96;98419.69;4998629;28;20486;-86
2024/04/05 04:07:24;;;;;;;3.95;2.67;;;;;;;9.54;91.85;98420.06;4990872;28;21563;-86
2024/04/05 04:09:49;;;;;;;7.07;2.85;;;;;;;9.09;91.71;98368.97;5010205;28;20037;-86
2024/04/05 04:12:15;;;;;;;10.73;3.22;;;;;;;9.34;91.61;98395.06;4972006;28;20030;-85
2024/04/05 04:14:41;;;;;;;10.93;2.78;;;;;;;9.45;91.74;98429.56;4976516;28;20050;-86
2024/04/05 04:17:06;;;;;;;6.03;2.03;;;;;;;9.03;92.97;98375.31;4993525;28;20041;-86
2024/04/05 04:19:32;;;;;;;8.07;2.58;;;;;;;9.40;92.25;98402.03;4956626;28;20402;-86
2024/04/05 04:21:58;;;;;;;11.82;3.33;;;;;;;9.37;92.09;98418.53;4985986;28;20034;-86
2024/04/05 04:24:24;;;;;;;4.82;2.03;;;;;;;9.12;92.96;98384.47;4970953;28;20041;-86
2024/04/05 04:26:50;;;;;;;10.63;2.83;;;;;;;9.39;93.45;98425.22;4959280;28;20040;-86
2024/04/05 04:29:16;;;;;;;9.95;3.22;;;;;;;9.40;93.69;98428.69;4970334;28;20037;-86
2024/04/05 04:31:42;;;;;;;7.75;2.55;;;;;;;8.92;93.76;98352.28;4988064;28;20056;-85
2024/04/05 04:34:08;;;;;;;21.15;4.63;;;;;;;9.34;94.33;98424.38;5004907;28;20397;-85
2024/04/05 04:36:33;;;;;;;9.20;2.90;;;;;;;8.84;95.23;98332.28;4982011;28;20033;-86
2024/04/05 04:38:59;;;;;;;7.60;2.70;;;;;;;9.41;95.61;98424.97;4985243;28;20065;-86
2024/04/05 04:41:24;;;;;;;11.70;2.95;;;;;;;9.24;95.74;98400.31;4966754;28;20490;-86
2024/04/05 04:43:52;;;;;;;8.30;3.50;;;;;;;9.37;96.91;98429.19;4962824;28;20037;-86
2024/04/05 04:46:18;;;;;;;8.15;3.20;;;;;;;9.32;98.64;98426.47;4961003;28;20466;-86
2024/04/05 04:48:43;;;;;;;11.18;3.67;;;;;;;9.37;99.32;98413.22;4990831;28;20037;-87
2024/04/05 04:51:10;;;;;;;12.65;3.60;;;;;;;9.34;97.97;98425.19;4975029;28;20045;-86
2024/04/05 04:53:36;;;;;;;9.55;4.22;;;;;;;9.32;97.94;98419.28;4989717;28;20037;-86
2024/04/05 04:56:01;;;;;;;11.18;3.63;;;;;;;9.39;98.56;98432.41;4992842;28;20046;-87
2024/04/05 04:58:29;;;;;;;11.38;3.95;;;;;;;9.48;99.00;98436.25;4993760;28;20034;-86
2024/04/05 05:00:58;;;;;;;10.95;3.75;;;;;;;9.27;99.17;98397.13;4967751;28;20422;-87
2024/04/05 05:03:23;;;;;;;13.80;4.30;;;;;;;8.92;99.95;98347.78;5003254;28;20044;-86
2024/04/05 05:05:49;;;;;;;10.38;3.97;;;;;;;9.48;99.67;98418.38;5000082;28;20121;-86
2024/04/05 05:08:14;;;;;;;12.68;4.20;;;;;;;9.41;99.98;98406.34;5023632;28;20032;-86
2024/04/05 05:10:42;;;;;;;9.90;3.72;;;;;;;9.51;100.00;98415.22;4998918;28;20375;-86
2024/04/05 05:13:13;;;;;;;12.07;4.20;;;;;;;9.60;99.62;98424.38;5017849;28;20032;-87
2024/04/05 05:15:42;;;;;;;11.20;4.38;;;;;;;9.54;99.61;98438.72;4982342;28;20048;-87
2024/04/05 05:18:09;;;;;;;17.25;5.53;;;;;;;8.75;99.63;98309.81;5006591;28;20113;-87
2024/04/05 05:20:34;;;;;;;8.75;3.60;;;;;;;9.55;99.16;98436.81;4993218;28;20034;-87
2024/04/05 05:23:00;;;;;;;12.63;3.95;;;;;;;9.60;99.27;98434.22;4990005;28;20041;-87
2024/04/05 05:25:25;;;;;;;12.63;5.63;;;;;;;9.69;99.31;98443.38;5004384;28;20661;-87
2024/04/05 05:27:51;;;;;;;15.90;4.13;;;;;;;9.66;99.71;98444.66;5014601;28;20521;-87
2024/04/05 05:30:16;;;;;;;15.45;4.00;;;;;;;9.10;99.35;98365.28;5019546;28;20043;-87
2024/04/05 05:32:42;;;;;;;10.32;4.47;;;;;;;9.71;99.63;98449.25;4990020;28;20050;-86
2024/04/05 05:35:08;;;;;;;11.65;3.88;;;;;;;9.29;98.99;98381.69;5001137;28;20476;-86
2024/04/05 05:37:34;;;;;;;10.80;4.07;;;;;;;9.77;99.40;98451.72;5020437;28;20029;-87
2024/04/05 05:40:00;;;;;;;13.00;3.70;;;;;;;9.79;99.15;98446.13;4999021;28;20038;-87
2024/04/05 05:42:27;;;;;;;14.95;5.13;;;;;;;9.78;99.65;98436.53;5023940;28;20100;-87
2024/04/05 05:44:53;;;;;;;13.23;5.57;;;;;;;9.85;100.00;98447.75;4991767;28;20041;-87
2024/04/05 05:47:19;;;;;;;11.32;4.00;;;;;;;9.80;99.77;98453.06;4984693;28;20038;-86
2024/04/05 05:49:44;;;;;;;16.40;5.28;;;;;;;9.89;99.83;98458.75;5000951;28;20060;-86
2024/04/05 05:52:10;;;;;;;9.90;3.63;;;;;;;9.58;99.91;98409.69;4984672;28;20029;-86
2024/04/05 05:54:36;;;;;;;11.95;4.68;;;;;;;9.95;99.72;98455.88;4984965;28;20026;-84
2024/04/05 05:57:02;;;;;;;12.38;4.53;;;;;;;9.70;99.66;98427.13;5002549;28;20033;-86
2024/04/05 05:59:28;;;;;;;10.98;3.92;;;;;;;9.98;99.51;98455.34;4985188;28;20018;-87
2024/04/05 06:01:54;;;;;;;10.13;4.32;;;;;;;9.99;99.79;98464.97;4999061;28;20040;-86
2024/04/05 06:04:19;;;;;;;10.55;4.30;;;;;;;9.98;99.95;98463.34;4993352;28;20030;-87
2024/04/05 06:06:45;;;;;;;11.30;4.53;;;;;;;9.97;99.58;98463.59;4998718;28;20030;-86
2024/04/05 06:09:13;;;;;;;11.70;5.10;;;;;;;9.91;100.00;98449.44;5014543;28;20046;-86
2024/04/05 06:11:39;;;;;;;9.25;4.00;;;;;;;9.61;99.30;98395.88;5000472;28;20026;-86
2024/04/05 06:14:04;;;;;;;18.75;4.88;;;;;;;9.40;100.00;98359.44;5015528;28;20032;-86
2024/04/05 06:16:29;;;;;;;11.32;4.47;;;;;;;10.05;99.70;98441.78;4997976;28;20034;-86
2024/04/05 06:18:55;;;;;;;11.40;4.50;;;;;;;10.08;99.53;98439.44;4981472;28;20085;-86
2024/04/05 06:21:20;;;;;;;13.43;3.88;;;;;;;9.85;99.50;98415.78;5002547;28;20026;-86
2024/04/05 06:23:45;;;;;;;12.90;4.43;;;;;;;10.13;99.72;98446.72;5001431;28;20030;-86
2024/04/05 06:26:11;;;;;;;15.52;4.93;;;;;;;10.15;99.76;98453.41;4998239;28;20036;-86
2024/04/05 06:28:36;;;;;;;8.05;4.03;;;;;;;10.15;99.44;98458.75;4983626;28;20133;-87
2024/04/05 06:31:02;;;;;;;15.18;3.95;;;;;;;9.78;99.00;98372.56;5007862;28;20509;-86
2024/04/05 06:33:29;;;;;;;15.75;5.35;;;;;;;10.08;100.00;98449.31;5000689;28;20440;-86
2024/04/05 06:35:58;;;;;;;13.60;4.72;;;;;;;10.25;99.08;98442.81;5015306;28;20037;-86
2024/04/05 06:38:25;;;;;;;19.20;4.63;;;;;;;10.34;98.29;98437.78;4997531;28;20033;-87
2024/04/05 06:40:57;;;;;;;9.98;3.88;;;;;;;10.11;99.52;98435.50;5015191;28;20040;-86
2024/04/05 06:43:25;;;;;;;10.85;4.00;;;;;;;10.15;98.83;98413.41;5013877;28;20524;-86
2024/04/05 06:45:59;;;;;;;10.07;4.18;;;;;;;10.28;99.04;98452.97;5010168;28;20129;-86
2024/04/05 06:48:24;;;;;;;16.85;4.47;;;;;;;10.15;99.21;98426.75;5013382;28;20129;-86
2024/04/05 06:50:50;;;;;;;8.70;4.05;;;;;;;10.26;98.86;98423.09;5001252;28;20128;-86
2024/04/05 06:53:24;;;;;;;8.60;3.67;;;;;;;10.39;98.84;98451.16;4985593;28;20472;-87
2024/04/05 06:55:50;;;;;;;10.73;3.53;;;;;;;10.18;98.68;98404.88;4973479;28;20030;-87
2024/04/05 06:58:19;;;;;;;10.95;4.57;;;;;;;10.00;98.88;98381.28;4997953;28;20029;-87
2024/04/05 07:00:45;;;;;;;6.25;3.58;;;;;;;10.33;98.83;98439.66;4996519;28;20025;-86
2024/04/05 07:03:12;;;;;;;14.57;3.92;;;;;;;10.34;98.29;98430.59;4995711;28;20088;-87
2024/04/05 07:05:38;;;;;;;10.27;3.78;;;;;;;10.28;97.19;98420.97;4980892;28;20117;-86
2024/04/05 07:08:04;;;;;;;10.27;4.35;;;;;;;10.31;98.12;98435.66;4974263;28;20026;-87
2024/04/05 07:10:31;;;;;;;10.98;4.22;;;;;;;10.63;96.65;98486.28;5012579;28;20105;-86
2024/04/05 07:12:57;;;;;;;6.50;3.60;;;;;;;10.77;96.91;98492.78;5011646;28;20061;-86
2024/04/05 07:15:23;;;;;;;9.02;3.80;;;;;;;10.81;98.06;98491.97;4998094;28;20061;-86
2024/04/05 07:17:49;;;;;;;8.98;4.43;;;;;;;10.76;95.84;98477.81;4979783;28;20095;-87
2024/04/05 07:20:16;;;;;;;8.88;3.30;;;;;;;10.76;96.70;98477.81;5001181;28;20042;-86
2024/04/05 07:22:42;;;;;;;14.05;3.58;;;;;;;10.88;96.40;98468.53;4965279;28;20022;-87
2024/04/05 07:25:08;;;;;;;12.90;3.97;;;;;;;10.65;95.81;98412.09;5010586;28;20042;-86
2024/04/05 07:27:35;;;;;;;11.95;4.13;;;;;;;10.82;96.40;98450.06;4999458;28;20072;-86
2024/04/05 07:30:01;;;;;;;10.82;3.22;;;;;;;10.80;96.86;98438.84;5000485;28;20061;-86
2024/04/05 07:32:27;;;;;;;20.00;5.05;;;;;;;11.03;96.32;98465.16;5001024;28;20037;-86
2024/04/05 07:34:53;;;;;;;11.30;4.50;;;;;;;11.22;95.85;98490.34;4984955;28;20097;-87
2024/04/05 07:37:18;;;;;;;16.45;4.45;;;;;;;11.20;96.24;98489.81;5016494;28;20069;-87
2024/04/05 07:39:44;;;;;;;11.63;3.83;;;;;;;11.23;95.73;98498.09;4999021;28;20026;-87
2024/04/05 07:42:10;;;;;;;11.30;3.70;;;;;;;11.12;96.27;98492.94;4995924;28;20622;-86
2024/04/05 07:44:35;;;;;;;7.60;3.38;;;;;;;10.97;96.36;98477.66;4999548;28;20036;-86
2024/04/05 07:47:00;;;;;;;17.42;5.65;;;;;;;10.99;96.55;98469.38;4997196;28;20029;-86
2024/04/05 07:49:26;;;;;;;13.57;4.45;;;;;;;11.10;96.14;98473.72;4983524;28;20029;-86
2024/04/05 07:51:52;;;;;;;14.65;3.95;;;;;;;11.19;95.58;98506.88;5008262;28;20042;-86
2024/04/05 07:54:17;;;;;;;12.10;3.38;;;;;;;11.31;96.14;98520.84;4999702;28;20057;-86
2024/04/05 07:56:43;;;;;;;11.60;3.95;;;;;;;11.19;97.09;98510.34;4996494;28;20069;-87
2024/04/05 07:59:10;;;;;;;16.65;4.47;;;;;;;11.18;96.73;98522.09;4987622;28;20034;-86
2024/04/05 08:01:35;;;;;;;11.07;3.65;;;;;;;11.13;97.50;98515.94;5001477;28;20083;-87
2024/04/05 08:04:01;;;;;;;13.20;4.45;;;;;;;11.14;97.55;98509.50;4987286;28;20122;-87
2024/04/05 08:06:27;;;;;;;10.52;3.00;;;;;;;11.24;97.45;98549.66;4998826;28;20041;-86
2024/04/05 08:08:52;;;;;;;9.25;3.03;;;;;;;11.10;97.75;98517.25;5011322;28;20034;-87
2024/04/05 08:11:17;;;;;;;17.83;4.53;;;;;;;11.27;97.58;98546.44;4980784;28;20026;-87
2024/04/05 08:13:43;;;;;;;19.80;4.35;;;;;;;11.05;97.09;98487.06;4965020;28;20033;-87
2024/04/05 08:16:08;;;;;;;10.38;3.80;;;;;;;11.20;97.38;98516.50;4991800;28;20056;-87
2024/04/05 08:18:34;;;;;;;12.57;4.35;;;;;;;11.16;98.31;98518.88;4995265;28;20116;-87
2024/04/05 08:21:05;;;;;;;11.32;3.92;;;;;;;11.00;100.00;98482.50;4995292;28;20033;-88
2024/04/05 08:23:31;;;;;;;10.82;3.30;;;;;;;10.61;100.00;98401.16;4996432;28;20045;-88
2024/04/05 08:25:57;;;;;;;11.43;3.67;;;;;;;11.24;96.59;98475.66;4966676;28;20100;-86
2024/04/05 08:28:22;;;;;;;10.30;3.38;;;;;;;11.32;96.85;98487.69;4984064;28;20038;-86
2024/04/05 08:30:51;;;;;;;11.05;3.55;;;;;;;11.36;97.14;98472.75;4990502;28;20046;-87
2024/04/05 08:33:17;;;;;;;12.52;4.07;;;;;;;11.46;96.16;98478.13;4964953;28;20037;-86
2024/04/05 08:35:54;;;;;;;12.10;3.63;;;;;;;11.46;96.43;98466.63;4995842;28;20033;-86
2024/04/05 08:38:19;;;;;;;8.10;3.58;;;;;;;11.44;100.00;98471.44;4996369;28;20022;-86
2024/04/05 08:40:45;;;;;;;12.00;4.03;;;;;;;11.22;97.68;98426.22;4996873;28;20056;-86
2024/04/05 08:43:15;;;;;;;10.65;3.40;;;;;;;11.55;99.28;98465.06;4964595;28;20029;-86
2024/04/05 08:45:42;;;;;;;9.55;3.35;;;;;;;11.43;99.58;98427.06;5008174;28;20033;-86
2024/04/05 08:48:09;;;;;;;13.55;4.10;;;;;;;11.65;96.39;98462.41;4994809;28;20038;-86
2024/04/05 08:50:35;;;;;;;4.88;2.97;;;;;;;11.82;95.83;98479.84;4995378;28;20037;-86
2024/04/05 08:53:01;;;;;;;7.38;3.55;;;;;;;11.81;100.00;98486.28;4994506;28;20037;-87
2024/04/05 08:55:26;;;;;;;12.95;3.80;;;;;;;11.83;96.19;98465.41;5007392;28;20033;-86
2024/04/05 08:57:52;;;;;;;10.68;3.50;;;;;;;11.97;97.26;98476.38;4977950;28;20490;-87
2024/04/05 09:00:23;;;;;;;11.25;3.92;;;;;;;11.84;99.28;98458.97;4994137;28;20036;-86
2024/04/05 09:02:52;;;;;;;11.30;4.63;;;;;;;12.01;100.00;98472.91;4989560;28;20069;-86
2024/04/05 09:05:19;;;;;;;10.73;4.35;;;;;;;11.80;99.74;98447.22;4996207;28;20038;-86
2024/04/05 09:07:47;;;;;;;10.13;3.88;;;;;;;11.95;99.95;98452.56;4993170;28;21518;-86
2024/04/05 09:10:16;;;;;;;12.57;3.03;;;;;;;12.20;98.59;98473.19;4989770;28;20033;-85
2024/04/05 09:12:50;;;;;;;9.30;2.95;;;;;;;12.20;95.83;98472.38;5007105;28;20026;-86
2024/04/05 09:15:17;;;;;;;14.82;3.75;;;;;;;12.11;96.75;98439.22;4979347;28;20088;-86
2024/04/05 09:17:45;;;;;;;9.60;3.58;;;;;;;12.41;96.42;98458.72;4973592;28;20033;-86
2024/04/05 09:20:16;;;;;;;15.50;3.88;;;;;;;12.31;98.07;98449.91;4994277;28;20438;-86
2024/04/05 09:22:43;;;;;;;8.13;2.90;;;;;;;12.42;95.24;98468.38;4978464;28;20038;-86
2024/04/05 09:25:09;;;;;;;11.25;3.97;;;;;;;12.17;95.86;98392.66;4978342;28;20029;-87
2024/04/05 09:27:34;;;;;;;10.75;3.83;;;;;;;12.60;97.90;98461.66;5010814;28;20052;-87
2024/04/05 09:30:03;;;;;;;8.55;3.78;;;;;;;12.92;100.00;98456.75;4977172;28;20091;-87
2024/04/05 09:32:29;;;;;;;7.72;2.72;;;;;;;12.56;96.83;98420.41;4994057;28;20125;-87
2024/04/05 09:34:57;;;;;;;8.43;3.25;;;;;;;12.92;94.63;98458.63;4993894;28;20108;-86
2024/04/05 09:37:25;;;;;;;10.63;3.28;;;;;;;13.14;99.04;98440.34;4989035;28;20133;-86
2024/04/05 09:39:54;;;;;;;12.02;3.30;;;;;;;13.27;98.25;98426.34;4997587;28;20030;-86
2024/04/05 09:42:23;;;;;;;5.00;2.70;;;;;;;12.76;95.15;98361.44;4996298;28;20061;-86
2024/04/05 09:44:55;;;;;;;13.02;3.15;;;;;;;12.79;93.81;98363.59;5014664;28;20026;-86
2024/04/05 09:47:22;;;;;;;10.10;3.65;;;;;;;12.87;94.95;98340.78;4979961;28;20029;-86
2024/04/05 09:49:47;;;;;;;6.45;3.25;;;;;;;13.07;94.47;98370.19;4980451;28;20446;-86
2024/04/05 09:52:14;;;;;;;9.02;2.88;;;;;;;13.34;95.01;98395.50;4988005;28;20054;-86
2024/04/05 09:54:40;;;;;;;9.70;2.92;;;;;;;13.09;92.56;98339.34;4997290;28;20026;-86
2024/04/05 09:57:11;;;;;;;8.25;2.78;;;;;;;13.57;92.89;98401.25;4987647;28;20038;-86
2024/04/05 09:59:39;;;;;;;9.48;3.10;;;;;;;13.22;93.58;98362.06;5014207;28;20081;-86
2024/04/05 10:02:06;;;;;;;9.57;3.05;;;;;;;13.22;93.63;98364.72;4997424;28;20042;-86
2024/04/05 10:04:36;;;;;;;8.52;2.95;;;;;;;13.31;93.02;98384.53;5019637;28;20056;-86
2024/04/05 10:07:05;;;;;;;7.78;3.00;;;;;;;13.24;92.81;98408.94;5014144;28;20057;-86
2024/04/05 10:09:34;;;;;;;7.88;3.15;;;;;;;13.08;92.68;98369.94;5012280;28;20457;-86
2024/04/05 10:12:13;;;;;;;11.85;3.47;;;;;;;13.23;93.28;98395.84;4993719;28;20493;-86
2024/04/05 10:14:39;;;;;;;5.55;2.72;;;;;;;13.31;93.40;98406.78;4996513;28;20044;-86
2024/04/05 10:17:09;;;;;;;9.45;3.42;;;;;;;13.23;92.30;98403.88;4981898;28;20497;-86
2024/04/05 10:19:37;;;;;;;9.25;3.65;;;;;;;13.01;93.22;98376.63;5011947;28;20026;-85
2024/04/05 10:22:10;;;;;;;6.07;3.40;;;;;;;13.12;92.77;98403.13;5013183;28;20113;-86
2024/04/05 10:24:36;;;;;;;7.72;2.97;;;;;;;13.19;93.73;98400.16;5014085;28;20485;-86
2024/04/05 10:27:04;;;;;;;12.80;3.63;;;;;;;12.95;93.04;98367.81;4996734;28;20034;-86
2024/04/05 10:29:30;;;;;;;6.60;2.78;;;;;;;13.18;92.90;98399.34;5002310;28;20030;-86
2024/04/05 10:32:14;;;;;;;7.78;3.88;;;;;;;13.14;93.76;98384.88;4999996;28;20102;-86
2024/04/05 10:34:39;;;;;;;6.78;3.63;;;;;;;13.13;93.55;98361.03;4981788;28;20090;-86
2024/04/05 10:37:05;;;;;;;7.82;2.85;;;;;;;13.26;92.05;98369.25;4996124;28;20042;-86
2024/04/05 10:39:32;;;;;;;8.20;4.00;;;;;;;13.26;91.81;98357.75;5013454;28;20046;-86
2024/04/05 10:41:57;;;;;;;6.55;2.97;;;;;;;12.92;92.13;98301.38;5014811;28;20026;-86
2024/04/05 10:44:23;;;;;;;11.93;3.63;;;;;;;13.40;91.72;98350.69;5013520;28;20393;-86
2024/04/05 10:46:49;;;;;;;5.68;3.20;;;;;;;13.36;92.02;98312.94;5003784;28;20406;-86
2024/04/05 10:49:15;;;;;;;8.50;3.10;;;;;;;13.44;91.55;98300.78;5003536;28;20532;-86
2024/04/05 10:51:44;;;;;;;11.75;3.05;;;;;;;13.51;90.93;98309.31;5006604;28;20104;-86
2024/04/05 10:54:16;;;;;;;6.78;3.20;;;;;;;13.94;90.56;98324.50;5001165;28;20057;-86
2024/04/05 10:56:43;;;;;;;8.77;2.60;;;;;;;14.13;90.52;98317.34;4988245;28;20047;-86
2024/04/05 10:59:10;;;;;;;6.45;3.15;;;;;;;14.25;89.79;98306.22;4980846;28;20129;-86
2024/04/05 11:01:36;;;;;;;5.68;3.17;;;;;;;14.22;89.74;98299.53;5014965;28;20036;-86
2024/04/05 11:04:06;;;;;;;8.52;3.22;;;;;;;14.37;88.34;98295.13;4997176;28;20093;-86
2024/04/05 11:06:32;;;;;;;4.30;2.60;;;;;;;14.55;87.44;98289.78;5014587;28;20060;-86
2024/04/05 11:08:58;;;;;;;8.63;2.85;;;;;;;14.32;87.30;98236.91;4997099;28;20058;-86
2024/04/05 11:11:24;;;;;;;9.93;3.13;;;;;;;14.69;87.19;98285.31;5004461;28;20037;-86
2024/04/05 11:14:03;;;;;;;9.25;2.95;;;;;;;14.51;87.43;98272.66;5013372;28;20030;-86
2024/04/05 11:16:29;;;;;;;7.88;3.00;;;;;;;14.49;87.22;98236.41;5010145;28;20072;-86
2024/04/05 11:18:56;;;;;;;8.15;3.40;;;;;;;14.73;86.65;98267.53;5003713;28;20046;-86
2024/04/05 11:21:21;;;;;;;2.88;2.28;;;;;;;14.83;86.04;98255.84;5000876;28;20042;-86
2024/04/05 11:23:51;;;;;;;6.60;2.50;;;;;;;14.80;85.74;98251.84;5013892;28;20029;-86
2024/04/05 11:26:21;;;;;;;6.78;3.00;;;;;;;14.94;85.69;98228.53;5013208;28;20496;-86
2024/04/05 11:28:47;;;;;;;9.38;3.22;;;;;;;15.05;85.68;98245.28;4997626;28;20022;-86
2024/04/05 11:31:17;;;;;;;7.03;2.90;;;;;;;14.77;84.91;98171.03;5014747;28;20120;-86